Time;durP1;ratioP1;P1;durP2;ratioP2;P2;SDS_P1;SDS_P2;PMS_P1;PMS_P2;Temp;Humidity;BMP_temperature;BMP_pressure;BME280_temperature;BME280_humidity;BME280_pressure;Samples;Min_cycle;Max_cycle;Signal;HPM_P1;HPM_P2
2021/05/05 00:00:57;;;;;;;7.27;0.90;;;7.10;92.00;;;;;;5038287;28;20053;-76
2021/05/05 00:03:22;;;;;;;5.20;1.00;;;7.10;91.90;;;;;;5038257;28;20028;-77
2021/05/05 00:05:48;;;;;;;5.37;1.10;;;7.10;92.20;;;;;;5038428;28;20033;-77
2021/05/05 00:08:13;;;;;;;4.80;0.80;;;7.10;91.90;;;;;;5056152;28;20025;-75
2021/05/05 00:10:39;;;;;;;6.63;0.83;;;7.20;91.80;;;;;;5021500;28;20115;-76
2021/05/05 00:13:05;;;;;;;5.03;1.20;;;7.10;91.70;;;;;;5056181;28;20036;-77
2021/05/05 00:15:30;;;;;;;3.63;1.30;;;7.10;91.60;;;;;;5038050;28;20487;-76
2021/05/05 00:17:56;;;;;;;5.67;1.00;;;7.10;91.60;;;;;;5055665;28;20041;-74
2021/05/05 00:20:22;;;;;;;5.13;0.97;;;7.20;91.50;;;;;;5055942;28;20029;-77
2021/05/05 00:22:49;;;;;;;8.53;1.83;;;7.20;91.50;;;;;;5056031;28;20527;-77
2021/05/05 00:25:15;;;;;;;7.17;1.03;;;7.20;91.60;;;;;;5037812;28;20078;-76
2021/05/05 00:27:41;;;;;;;5.83;1.30;;;7.20;91.50;;;;;;5055709;28;20419;-76
2021/05/05 00:30:09;;;;;;;5.77;1.47;;;7.20;91.30;;;;;;5022751;28;20553;-75
2021/05/05 00:32:35;;;;;;;12.30;1.33;;;7.20;91.50;;;;;;5067620;28;20032;-78
2021/05/05 00:35:01;;;;;;;5.97;1.53;;;7.30;91.50;;;;;;5056952;28;20036;-77
2021/05/05 00:37:27;;;;;;;12.50;2.07;;;7.20;91.40;;;;;;5040788;28;20028;-74
2021/05/05 00:39:52;;;;;;;10.30;2.60;;;7.20;91.40;;;;;;5023775;28;20036;-76
2021/05/05 00:42:19;;;;;;;9.20;1.70;;;7.20;91.40;;;;;;5075303;28;20034;-77
2021/05/05 00:44:45;;;;;;;6.20;1.30;;;7.20;91.30;;;;;;5075220;28;20039;-77
2021/05/05 00:47:11;;;;;;;9.20;1.63;;;7.20;91.30;;;;;;5075137;28;20028;-76
2021/05/05 00:49:37;;;;;;;10.40;2.43;;;7.20;91.40;;;;;;5057089;28;20399;-78
2021/05/05 00:52:03;;;;;;;5.60;1.80;;;7.20;91.30;;;;;;5057179;28;20471;-73
2021/05/05 00:54:28;;;;;;;8.60;1.60;;;7.20;91.20;;;;;;5074862;28;20025;-74
2021/05/05 00:56:55;;;;;;;7.80;1.57;;;7.20;91.20;;;;;;5074658;28;20029;-73
2021/05/05 00:59:23;;;;;;;9.80;1.60;;;7.20;91.10;;;;;;5056921;28;20060;-74
2021/05/05 01:01:49;;;;;;;7.50;1.67;;;7.20;91.10;;;;;;5074887;28;20025;-72
2021/05/05 01:04:14;;;;;;;10.63;2.13;;;7.20;91.00;;;;;;5040327;28;20051;-75
2021/05/05 01:06:40;;;;;;;15.10;2.80;;;7.20;91.00;;;;;;5056883;28;20484;-75
2021/05/05 01:09:06;;;;;;;10.73;2.23;;;7.20;91.10;;;;;;5056972;28;20032;-72
2021/05/05 01:11:32;;;;;;;10.70;3.60;;;7.20;91.20;;;;;;5074552;28;20035;-72
2021/05/05 01:13:58;;;;;;;14.57;4.23;;;7.10;91.30;;;;;;5074482;28;20024;-72
2021/05/05 01:16:24;;;;;;;8.07;3.13;;;7.10;91.40;;;;;;5074413;28;20021;-73
2021/05/05 01:18:51;;;;;;;12.70;3.30;;;7.10;91.50;;;;;;5074426;28;20035;-78
2021/05/05 01:21:18;;;;;;;9.67;2.53;;;7.00;91.50;;;;;;5074421;28;20031;-74
2021/05/05 01:23:43;;;;;;;9.97;2.40;;;7.10;91.50;;;;;;5056525;28;20054;-77
2021/05/05 01:26:09;;;;;;;12.27;2.23;;;7.00;91.20;;;;;;5074189;28;20059;-74
2021/05/05 01:28:41;;;;;;;11.53;2.50;;;7.10;91.20;;;;;;5039471;28;20055;-77
2021/05/05 01:31:10;;;;;;;11.90;2.73;;;7.00;91.50;;;;;;5074157;28;20064;-75
2021/05/05 01:33:37;;;;;;;9.27;2.37;;;7.10;91.60;;;;;;5074117;28;20066;-74
2021/05/05 01:36:04;;;;;;;9.63;2.80;;;7.10;92.60;;;;;;5073971;28;20492;-73
2021/05/05 01:38:29;;;;;;;8.27;1.90;;;6.90;93.10;;;;;;5039650;28;20377;-76
2021/05/05 01:40:55;;;;;;;8.77;1.70;;;6.80;93.60;;;;;;5055977;28;20129;-73
2021/05/05 01:43:21;;;;;;;8.43;1.57;;;6.60;94.00;;;;;;5055946;28;20021;-73
2021/05/05 01:45:46;;;;;;;5.73;1.30;;;6.50;94.20;;;;;;5056176;28;20033;-76
2021/05/05 01:48:12;;;;;;;5.87;1.50;;;6.40;94.60;;;;;;5073843;28;20028;-75
2021/05/05 01:50:38;;;;;;;10.87;1.13;;;6.20;94.70;;;;;;5055109;28;20082;-75
2021/05/05 01:53:04;;;;;;;15.00;2.87;;;6.20;95.00;;;;;;5056013;28;20036;-76
2021/05/05 01:55:30;;;;;;;13.40;1.80;;;6.20;95.50;;;;;;5073706;28;20032;-75
2021/05/05 01:57:55;;;;;;;12.83;1.83;;;6.00;95.20;;;;;;5055835;28;20127;-76
2021/05/05 02:00:26;;;;;;;11.03;2.33;;;6.00;95.50;;;;;;5055771;28;20078;-76
2021/05/05 02:02:52;;;;;;;13.87;2.27;;;5.90;95.50;;;;;;5055686;28;20024;-76
2021/05/05 02:05:18;;;;;;;8.97;1.60;;;5.90;95.80;;;;;;5055696;28;20028;-76
2021/05/05 02:07:44;;;;;;;11.73;1.77;;;5.90;95.80;;;;;;5073585;28;20552;-75
2021/05/05 02:10:13;;;;;;;9.47;2.17;;;5.90;95.90;;;;;;5055561;28;20085;-76
2021/05/05 02:12:39;;;;;;;18.03;3.27;;;5.80;96.00;;;;;;5055894;28;20051;-75
2021/05/05 02:15:07;;;;;;;16.73;2.70;;;5.80;96.10;;;;;;5073443;28;20078;-76
2021/05/05 02:17:33;;;;;;;13.23;2.80;;;5.80;96.10;;;;;;5055463;28;20399;-77
2021/05/05 02:19:59;;;;;;;12.87;2.43;;;5.80;96.30;;;;;;5055437;28;20036;-74
2021/05/05 02:22:24;;;;;;;12.47;2.77;;;5.80;96.40;;;;;;5073275;28;20078;-75
2021/05/05 02:24:50;;;;;;;10.00;2.30;;;5.80;96.40;;;;;;5055289;28;20650;-74
2021/05/05 02:27:16;;;;;;;20.07;2.80;;;5.80;96.60;;;;;;5055590;28;20024;-75
2021/05/05 02:29:42;;;;;;;18.53;2.50;;;5.80;96.50;;;;;;5055187;28;20062;-76
2021/05/05 02:32:13;;;;;;;16.30;2.70;;;5.80;96.40;;;;;;5055381;28;20468;-76
2021/05/05 02:34:40;;;;;;;10.50;2.50;;;5.70;96.50;;;;;;5055239;28;20032;-75
2021/05/05 02:37:09;;;;;;;15.23;2.47;;;5.80;96.60;;;;;;5073319;28;20038;-76
2021/05/05 02:39:39;;;;;;;14.07;2.80;;;5.80;96.60;;;;;;5055455;28;20049;-75
2021/05/05 02:42:06;;;;;;;13.10;2.77;;;5.80;96.70;;;;;;5055015;28;20488;-77
2021/05/05 02:44:31;;;;;;;19.10;4.43;;;5.80;96.70;;;;;;5073112;28;20056;-75
2021/05/05 02:46:58;;;;;;;17.87;3.20;;;5.80;96.80;;;;;;5038354;28;20072;-76
2021/05/05 02:49:24;;;;;;;15.30;3.60;;;5.70;96.80;;;;;;5038897;28;20490;-75
2021/05/05 02:51:50;;;;;;;15.13;3.60;;;5.70;96.90;;;;;;5055293;28;20111;-76
2021/05/05 02:54:15;;;;;;;21.70;5.80;;;5.70;96.90;;;;;;5073106;28;20081;-77
2021/05/05 02:56:41;;;;;;;16.23;4.00;;;5.70;97.20;;;;;;5021876;28;20145;-77
2021/05/05 02:59:07;;;;;;;21.33;4.60;;;5.70;97.00;;;;;;5055082;28;20028;-77
2021/05/05 03:01:32;;;;;;;17.70;3.73;;;5.70;96.90;;;;;;5056552;28;20494;-76
2021/05/05 03:03:58;;;;;;;17.53;4.13;;;5.70;96.90;;;;;;5059227;28;20141;-76
2021/05/05 03:06:23;;;;;;;16.93;3.00;;;5.70;96.90;;;;;;5077115;28;20070;-78
2021/05/05 03:08:50;;;;;;;10.00;3.17;;;5.60;96.90;;;;;;5058906;28;20025;-76
2021/05/05 03:11:16;;;;;;;14.50;4.23;;;5.60;96.90;;;;;;5058931;28;20039;-75
2021/05/05 03:13:41;;;;;;;16.13;3.80;;;5.60;96.90;;;;;;5076998;28;20044;-76
2021/05/05 03:16:07;;;;;;;13.90;3.67;;;5.60;96.90;;;;;;5076743;28;20526;-75
2021/05/05 03:18:33;;;;;;;13.33;4.53;;;5.60;97.00;;;;;;5076765;28;20116;-72
2021/05/05 03:21:00;;;;;;;15.10;4.57;;;5.70;97.00;;;;;;5076678;28;20433;-73
2021/05/05 03:23:27;;;;;;;18.50;4.20;;;5.70;97.00;;;;;;5076664;28;20503;-74
2021/05/05 03:25:52;;;;;;;12.87;4.47;;;5.70;97.00;;;;;;5058790;28;20036;-71
2021/05/05 03:28:18;;;;;;;16.60;5.30;;;5.70;97.00;;;;;;5076458;28;20428;-75
2021/05/05 03:30:43;;;;;;;17.60;5.37;;;5.80;97.00;;;;;;5058542;28;20028;-74
2021/05/05 03:33:09;;;;;;;25.37;6.20;;;5.80;97.00;;;;;;5076459;28;20048;-72
2021/05/05 03:35:35;;;;;;;19.87;6.30;;;5.80;97.00;;;;;;5076369;28;20121;-75
2021/05/05 03:38:00;;;;;;;17.40;6.80;;;5.80;97.00;;;;;;5058313;28;20070;-74
2021/05/05 03:40:28;;;;;;;24.00;9.10;;;5.80;97.00;;;;;;5058541;28;20052;-74
2021/05/05 03:42:54;;;;;;;19.83;7.63;;;5.80;97.00;;;;;;5076365;28;20372;-71
2021/05/05 03:45:20;;;;;;;19.00;7.77;;;5.80;97.10;;;;;;5076159;28;20548;-74
2021/05/05 03:47:45;;;;;;;25.13;7.57;;;5.80;97.20;;;;;;5076109;28;20032;-73
2021/05/05 03:50:12;;;;;;;25.27;7.77;;;5.80;97.10;;;;;;5076167;28;20033;-74
2021/05/05 03:52:37;;;;;;;20.67;8.03;;;5.80;97.10;;;;;;5058279;28;20095;-74
2021/05/05 03:55:05;;;;;;;18.63;7.87;;;5.80;97.10;;;;;;5076022;28;20032;-72
2021/05/05 03:57:30;;;;;;;22.83;8.67;;;5.80;97.00;;;;;;5057975;28;20427;-74
2021/05/05 03:59:56;;;;;;;24.60;9.03;;;5.80;97.00;;;;;;5075816;28;20043;-72
2021/05/05 04:02:22;;;;;;;22.40;8.50;;;5.80;97.00;;;;;;5058772;28;20029;-72
2021/05/05 04:04:47;;;;;;;23.80;9.20;;;5.80;97.00;;;;;;5054109;28;20028;-72
2021/05/05 04:07:13;;;;;;;20.57;6.87;;;5.80;97.00;;;;;;5020093;28;20033;-74
2021/05/05 04:09:38;;;;;;;25.30;7.97;;;5.80;97.00;;;;;;5036540;28;20028;-72
2021/05/05 04:12:05;;;;;;;19.30;7.50;;;5.80;96.90;;;;;;5037904;28;20033;-70
2021/05/05 04:14:31;;;;;;;21.10;6.57;;;5.80;96.80;;;;;;5054748;28;20044;-74
2021/05/05 04:16:56;;;;;;;22.07;6.80;;;5.80;96.80;;;;;;5055592;28;20104;-73
2021/05/05 04:19:22;;;;;;;20.10;5.60;;;5.80;96.80;;;;;;5055601;28;20391;-72
2021/05/05 04:21:49;;;;;;;37.57;6.17;;;5.80;96.80;;;;;;5055621;28;20044;-73
2021/05/05 04:24:16;;;;;;;23.37;7.07;;;5.80;96.70;;;;;;5037565;28;20025;-72
2021/05/05 04:26:41;;;;;;;20.40;5.70;;;5.80;96.70;;;;;;5055332;28;20488;-73
2021/05/05 04:29:07;;;;;;;26.40;5.57;;;5.80;96.70;;;;;;5055185;28;20048;-75
2021/05/05 04:31:33;;;;;;;13.67;5.20;;;5.80;96.70;;;;;;5055332;28;20033;-76
2021/05/05 04:33:58;;;;;;;14.63;5.17;;;5.80;96.70;;;;;;5021216;28;20039;-76
2021/05/05 04:36:24;;;;;;;19.00;4.57;;;5.90;96.70;;;;;;5055330;28;20395;-76
2021/05/05 04:38:49;;;;;;;11.90;4.50;;;5.90;96.80;;;;;;5055157;28;20035;-76
2021/05/05 04:41:15;;;;;;;14.30;5.03;;;5.90;96.80;;;;;;5037252;28;20125;-76
2021/05/05 04:43:41;;;;;;;24.57;5.57;;;6.00;96.80;;;;;;5055126;28;20052;-75
2021/05/05 04:46:06;;;;;;;16.07;5.70;;;6.00;96.80;;;;;;5055092;28;20040;-77
2021/05/05 04:48:33;;;;;;;13.93;5.33;;;6.00;96.70;;;;;;5037226;28;20044;-75
2021/05/05 04:50:59;;;;;;;14.60;5.10;;;6.10;96.60;;;;;;5067285;28;20032;-76
2021/05/05 04:53:25;;;;;;;14.87;5.27;;;6.00;96.50;;;;;;5056677;28;20085;-76
2021/05/05 04:55:52;;;;;;;24.53;4.50;;;6.00;96.30;;;;;;5055348;28;20036;-77
2021/05/05 04:58:18;;;;;;;11.63;4.10;;;6.00;96.10;;;;;;5074135;28;20035;-75
2021/05/05 05:00:44;;;;;;;11.60;4.30;;;6.00;96.10;;;;;;5074859;28;20394;-76
2021/05/05 05:03:09;;;;;;;14.00;4.10;;;6.00;96.00;;;;;;5074816;28;20028;-76
2021/05/05 05:05:35;;;;;;;23.13;4.70;;;6.00;95.90;;;;;;5056748;28;20020;-75
2021/05/05 05:08:01;;;;;;;14.93;4.73;;;6.00;96.00;;;;;;5078434;28;20430;-74
2021/05/05 05:10:27;;;;;;;18.70;4.23;;;6.00;95.90;;;;;;5044931;28;20456;-76
2021/05/05 05:12:54;;;;;;;13.57;4.57;;;6.00;95.90;;;;;;5059000;28;20103;-75
2021/05/05 05:15:19;;;;;;;15.00;4.53;;;6.00;95.80;;;;;;5077279;28;20107;-76
2021/05/05 05:17:45;;;;;;;14.23;4.70;;;6.00;95.90;;;;;;5075545;28;20063;-76
2021/05/05 05:20:11;;;;;;;10.73;4.53;;;6.00;95.90;;;;;;5066546;28;20040;-76
2021/05/05 05:22:37;;;;;;;17.33;4.63;;;6.00;95.90;;;;;;5061899;28;20035;-76
2021/05/05 05:25:04;;;;;;;14.90;4.23;;;6.00;96.20;;;;;;5091149;28;20032;-77
2021/05/05 05:27:30;;;;;;;11.87;4.00;;;6.00;96.00;;;;;;5093354;28;20403;-76
2021/05/05 05:29:57;;;;;;;13.00;4.03;;;6.00;96.00;;;;;;5056498;28;20105;-76
2021/05/05 05:32:22;;;;;;;17.03;5.67;;;6.00;96.00;;;;;;5059107;28;20150;-76
2021/05/05 05:34:48;;;;;;;12.60;4.03;;;6.00;95.90;;;;;;5074355;28;20111;-76
2021/05/05 05:37:13;;;;;;;15.83;4.10;;;6.00;95.80;;;;;;5039619;28;20066;-76
2021/05/05 05:39:39;;;;;;;12.00;3.50;;;6.00;95.80;;;;;;5058880;28;20032;-76
2021/05/05 05:42:05;;;;;;;12.70;4.03;;;6.00;95.80;;;;;;5059021;28;20426;-74
2021/05/05 05:44:30;;;;;;;18.10;3.30;;;6.00;95.70;;;;;;5076951;28;20410;-76
2021/05/05 05:46:56;;;;;;;8.90;2.60;;;6.00;95.50;;;;;;5060420;28;20384;-76
2021/05/05 05:49:22;;;;;;;15.27;2.90;;;5.90;95.50;;;;;;5091300;28;20024;-76
2021/05/05 05:51:47;;;;;;;10.00;2.87;;;6.00;95.40;;;;;;5091879;28;20448;-78
2021/05/05 05:54:13;;;;;;;9.73;2.87;;;6.00;95.20;;;;;;5075650;28;20024;-77
2021/05/05 05:56:38;;;;;;;10.40;2.83;;;6.10;95.20;;;;;;5094339;28;20039;-75
2021/05/05 05:59:04;;;;;;;11.63;2.70;;;6.10;94.80;;;;;;5076345;28;20036;-76
2021/05/05 06:01:29;;;;;;;15.83;2.87;;;6.10;94.70;;;;;;5094593;28;20036;-76
2021/05/05 06:03:55;;;;;;;9.77;2.27;;;6.20;94.60;;;;;;5094253;28;20497;-76
2021/05/05 06:06:21;;;;;;;10.67;2.80;;;6.20;94.70;;;;;;5094190;28;20035;-77
2021/05/05 06:08:46;;;;;;;7.03;2.63;;;6.30;94.80;;;;;;5060218;28;20060;-76
2021/05/05 06:11:12;;;;;;;9.73;2.63;;;6.30;94.50;;;;;;5059382;28;20042;-76
2021/05/05 06:13:38;;;;;;;10.27;3.47;;;6.40;94.50;;;;;;5058692;28;20032;-75
2021/05/05 06:16:04;;;;;;;11.20;2.87;;;6.50;94.30;;;;;;5076125;28;20039;-76
2021/05/05 06:18:29;;;;;;;7.30;2.07;;;6.50;93.80;;;;;;5084137;28;20028;-76
2021/05/05 06:20:55;;;;;;;14.80;2.10;;;6.60;93.80;;;;;;5055771;28;20043;-76
2021/05/05 06:23:21;;;;;;;10.83;1.90;;;6.60;93.10;;;;;;5055436;28;20070;-76
2021/05/05 06:25:46;;;;;;;10.00;1.73;;;6.70;93.50;;;;;;5073623;28;20029;-75
2021/05/05 06:28:12;;;;;;;12.63;1.90;;;6.70;93.20;;;;;;5073018;28;20063;-77
2021/05/05 06:30:37;;;;;;;9.33;1.40;;;6.70;92.70;;;;;;5055015;28;20076;-76
2021/05/05 06:33:03;;;;;;;7.93;1.67;;;6.70;92.60;;;;;;5073220;28;20056;-76
2021/05/05 06:35:29;;;;;;;11.17;2.03;;;6.80;92.50;;;;;;5054964;28;20059;-76
2021/05/05 06:37:55;;;;;;;11.33;2.10;;;6.70;92.50;;;;;;5055441;28;20044;-76
2021/05/05 06:40:20;;;;;;;14.50;2.23;;;6.80;92.40;;;;;;5038496;28;20077;-76
2021/05/05 06:42:46;;;;;;;11.67;1.93;;;6.80;92.20;;;;;;5038625;28;20028;-75
2021/05/05 06:45:12;;;;;;;7.33;1.47;;;6.80;92.00;;;;;;5073181;28;20025;-75
2021/05/05 06:47:38;;;;;;;13.83;2.10;;;6.80;92.20;;;;;;5073158;28;20506;-77
2021/05/05 06:50:06;;;;;;;9.67;1.83;;;6.90;92.20;;;;;;5055202;28;20033;-77
2021/05/05 06:52:32;;;;;;;11.47;1.63;;;7.00;92.30;;;;;;5055068;28;20031;-77
2021/05/05 06:54:58;;;;;;;9.47;1.63;;;7.10;91.50;;;;;;5073041;28;20039;-77
2021/05/05 06:57:23;;;;;;;6.07;1.23;;;7.10;91.20;;;;;;5072973;28;20024;-76
2021/05/05 06:59:49;;;;;;;12.27;1.23;;;7.10;91.20;;;;;;5055216;28;20033;-76
2021/05/05 07:02:15;;;;;;;10.13;1.20;;;7.10;91.30;;;;;;5038503;28;20021;-76
2021/05/05 07:04:40;;;;;;;14.43;2.03;;;7.00;91.20;;;;;;5054984;28;20025;-77
2021/05/05 07:07:06;;;;;;;8.10;1.37;;;7.10;91.40;;;;;;5055065;28;20039;-79
2021/05/05 07:09:32;;;;;;;10.57;1.47;;;7.00;91.30;;;;;;5055096;28;20020;-78
2021/05/05 07:11:57;;;;;;;9.13;2.07;;;7.10;91.40;;;;;;5072591;28;20025;-75
2021/05/05 07:14:23;;;;;;;7.63;1.47;;;7.20;91.50;;;;;;5038389;28;20576;-76
2021/05/05 07:16:48;;;;;;;9.10;1.70;;;7.20;91.20;;;;;;5054855;28;20025;-77
2021/05/05 07:19:14;;;;;;;7.40;1.60;;;7.20;91.30;;;;;;5060434;28;20150;-77
2021/05/05 07:21:39;;;;;;;7.87;1.37;;;7.30;91.40;;;;;;5054986;28;20024;-76
2021/05/05 07:24:05;;;;;;;8.53;1.83;;;7.30;91.60;;;;;;5055295;28;20400;-75
2021/05/05 07:26:31;;;;;;;6.77;1.67;;;7.30;91.10;;;;;;5038649;28;20028;-77
2021/05/05 07:28:57;;;;;;;9.27;1.70;;;7.30;91.10;;;;;;5054882;28;20409;-76
2021/05/05 07:31:23;;;;;;;9.93;1.90;;;7.40;90.90;;;;;;5055262;28;20103;-74
2021/05/05 07:33:51;;;;;;;9.93;1.83;;;7.40;90.90;;;;;;5073007;28;20388;-75
2021/05/05 07:36:25;;;;;;;9.50;1.70;;;7.50;90.70;;;;;;5072886;28;20460;-76
2021/05/05 07:41:55;;;;;;;6.27;1.73;;;7.50;90.40;;;;;;5056494;28;20094;-75
2021/05/05 07:49:17;;;;;;;8.50;1.23;;;7.70;90.50;;;;;;5070341;28;20041;-76
2021/05/05 07:51:46;;;;;;;15.47;1.70;;;7.80;90.60;;;;;;5076858;28;20077;-76
2021/05/05 07:54:13;;;;;;;11.03;1.43;;;7.80;89.80;;;;;;5058480;28;20029;-77
2021/05/05 07:56:38;;;;;;;11.00;2.43;;;7.80;88.80;;;;;;5076276;28;20051;-75
2021/05/05 07:59:05;;;;;;;12.37;1.50;;;7.80;90.00;;;;;;5058446;28;20452;-76
2021/05/05 08:01:32;;;;;;;9.20;1.80;;;7.90;89.90;;;;;;5078758;28;20035;-76
2021/05/05 08:03:59;;;;;;;15.27;2.40;;;8.00;90.10;;;;;;5058742;28;20044;-75
2021/05/05 08:06:26;;;;;;;13.60;2.23;;;8.10;90.30;;;;;;5058476;28;20452;-77
2021/05/05 08:08:52;;;;;;;9.17;2.23;;;8.20;90.30;;;;;;5075885;28;20025;-76
2021/05/05 08:11:18;;;;;;;11.93;1.43;;;8.20;90.10;;;;;;5058080;28;20085;-77
2021/05/05 08:13:44;;;;;;;4.47;0.80;;;8.20;90.00;;;;;;5075236;28;20469;-76
2021/05/05 08:16:10;;;;;;;12.63;1.50;;;8.10;89.50;;;;;;5075712;28;20039;-76
2021/05/05 08:18:36;;;;;;;8.90;0.77;;;8.10;90.00;;;;;;5075733;28;20050;-75
2021/05/05 08:21:05;;;;;;;3.33;0.73;;;8.00;90.00;;;;;;5075488;28;20054;-76
2021/05/05 08:23:31;;;;;;;7.50;1.27;;;7.90;89.90;;;;;;5057743;28;20025;-76
2021/05/05 08:25:56;;;;;;;7.50;1.30;;;7.80;90.40;;;;;;5075610;28;20086;-74
2021/05/05 08:28:22;;;;;;;7.03;1.23;;;7.80;90.40;;;;;;5075582;28;20082;-76
2021/05/05 08:30:48;;;;;;;7.43;0.70;;;7.90;90.20;;;;;;5075334;28;20044;-77
2021/05/05 08:33:13;;;;;;;6.83;0.93;;;8.00;89.20;;;;;;5040923;28;20120;-76
2021/05/05 08:35:40;;;;;;;7.27;1.20;;;8.10;89.90;;;;;;5075709;28;20040;-75
2021/05/05 08:38:06;;;;;;;11.17;1.33;;;8.20;88.40;;;;;;5075372;28;20029;-76
2021/05/05 08:40:33;;;;;;;8.30;0.80;;;8.20;87.00;;;;;;5057310;28;20040;-78
2021/05/05 08:42:59;;;;;;;7.17;1.00;;;8.20;86.40;;;;;;5057031;28;20035;-77
2021/05/05 08:45:28;;;;;;;6.33;0.90;;;8.30;86.10;;;;;;5075204;28;20028;-75
2021/05/05 08:47:56;;;;;;;9.20;1.40;;;8.40;86.80;;;;;;5057177;28;20020;-75
2021/05/05 08:50:28;;;;;;;9.90;1.17;;;8.50;86.90;;;;;;5075102;28;20028;-76
2021/05/05 08:52:56;;;;;;;16.17;1.67;;;8.50;86.10;;;;;;5057107;28;20399;-77
2021/05/05 08:55:23;;;;;;;6.23;0.90;;;8.50;83.10;;;;;;5057043;28;20107;-76
2021/05/05 08:57:50;;;;;;;7.17;1.10;;;8.40;83.60;;;;;;5074919;28;20025;-77
2021/05/05 09:00:20;;;;;;;7.73;1.03;;;8.50;83.90;;;;;;5056718;28;20033;-79
2021/05/05 09:02:46;;;;;;;7.73;1.20;;;8.60;84.60;;;;;;5074722;28;20035;-76
2021/05/05 09:05:13;;;;;;;9.03;1.43;;;8.60;84.40;;;;;;5074775;28;20029;-78
2021/05/05 09:07:41;;;;;;;9.00;1.00;;;8.80;85.20;;;;;;5057079;28;20026;-78
2021/05/05 09:10:08;;;;;;;9.97;1.50;;;8.80;86.30;;;;;;5056644;28;20446;-76
2021/05/05 09:12:36;;;;;;;4.13;1.33;;;8.80;86.40;;;;;;5056873;28;20052;-77
2021/05/05 09:15:11;;;;;;;10.00;1.33;;;8.80;86.50;;;;;;5074637;28;20063;-77
2021/05/05 09:17:44;;;;;;;9.67;1.27;;;8.80;86.90;;;;;;5074555;28;20023;-76
2021/05/05 09:20:22;;;;;;;9.70;1.20;;;8.70;86.80;;;;;;5074419;28;20024;-76
2021/05/05 09:22:52;;;;;;;8.67;1.43;;;8.60;87.50;;;;;;5056500;28;20052;-75
2021/05/05 09:25:41;;;;;;;10.53;1.40;;;8.70;88.90;;;;;;5074405;28;20071;-77
2021/05/05 09:28:18;;;;;;;6.83;1.60;;;8.80;87.30;;;;;;5074251;28;20025;-77
2021/05/05 09:30:45;;;;;;;8.50;1.87;;;8.90;85.20;;;;;;5074150;28;20358;-79
2021/05/05 09:33:22;;;;;;;12.57;1.13;;;8.90;86.40;;;;;;5074399;28;20086;-78
2021/05/05 09:35:53;;;;;;;6.40;1.23;;;8.90;85.30;;;;;;5056153;28;20082;-76
2021/05/05 09:38:18;;;;;;;6.23;1.07;;;8.80;84.30;;;;;;5074145;28;20027;-77
2021/05/05 09:40:56;;;;;;;10.00;1.13;;;8.90;83.60;;;;;;5056249;28;20411;-77
2021/05/05 09:43:22;;;;;;;12.60;1.87;;;9.00;80.60;;;;;;5074045;28;20029;-78
2021/05/05 09:45:47;;;;;;;9.23;1.03;;;8.90;80.30;;;;;;5056048;28;20020;-76
2021/05/05 09:48:22;;;;;;;7.63;1.30;;;9.00;81.40;;;;;;5040078;28;20032;-79
2021/05/05 09:50:47;;;;;;;9.47;1.30;;;9.10;82.20;;;;;;5074052;28;20028;-79
2021/05/05 09:53:32;;;;;;;7.03;1.33;;;9.30;83.10;;;;;;5056338;28;20547;-78
2021/05/05 09:55:58;;;;;;;7.23;0.90;;;9.40;81.10;;;;;;5074321;28;20033;-78
2021/05/05 09:58:27;;;;;;;6.63;0.70;;;9.40;79.00;;;;;;5074347;28;20029;-77
2021/05/05 10:01:08;;;;;;;6.60;0.97;;;9.40;78.40;;;;;;5074078;28;20035;-76
2021/05/05 10:03:36;;;;;;;4.87;0.70;;;9.40;77.70;;;;;;5074155;28;20039;-77
2021/05/05 10:06:24;;;;;;;8.63;1.07;;;9.30;78.20;;;;;;5077809;28;20035;-77
2021/05/05 10:08:55;;;;;;;10.67;1.37;;;9.30;78.70;;;;;;5093793;28;20020;-77
2021/05/05 10:11:44;;;;;;;4.20;0.70;;;9.40;79.10;;;;;;5093303;28;20048;-76
2021/05/05 10:14:18;;;;;;;11.10;1.40;;;9.50;77.80;;;;;;5061178;28;20090;-76
2021/05/05 10:16:49;;;;;;;7.90;0.90;;;9.70;78.00;;;;;;5056341;28;20025;-77
2021/05/05 10:19:21;;;;;;;6.00;0.87;;;9.80;78.40;;;;;;5071257;28;20028;-78
2021/05/05 10:21:55;;;;;;;12.50;0.87;;;9.90;77.90;;;;;;5072503;28;20398;-77
2021/05/05 10:24:25;;;;;;;5.25;0.70;;;9.90;78.50;;;;;;5081618;28;20031;-77
2021/05/05 10:26:51;;;;;;;8.43;1.50;;;10.00;79.00;;;;;;5057208;28;20020;-78
2021/05/05 10:29:17;;;;;;;5.47;0.70;;;9.90;79.50;;;;;;5072237;28;20102;-76
2021/05/05 10:31:50;;;;;;;8.43;1.00;;;10.00;80.40;;;;;;5055014;28;20042;-77
2021/05/05 10:34:21;;;;;;;6.33;1.00;;;10.00;80.20;;;;;;5052342;28;20504;-77
2021/05/05 10:36:51;;;;;;;10.00;1.03;;;10.20;80.30;;;;;;5057877;28;20410;-77
2021/05/05 10:39:17;;;;;;;7.20;1.10;;;10.60;79.20;;;;;;5058389;28;20073;-76
2021/05/05 10:41:58;;;;;;;6.97;0.98;;;11.00;78.90;;;;;;5063010;28;20475;-77
2021/05/05 10:44:46;;;;;;;12.25;1.75;;;11.60;78.30;;;;;;5052804;28;20029;-77
2021/05/05 10:47:15;;;;;;;9.15;1.20;;;12.30;74.60;;;;;;5093532;28;20070;-78
2021/05/05 10:52:29;;;;;;;8.15;0.90;;;12.80;68.50;;;;;;5093783;28;20112;-78
2021/05/05 10:54:57;;;;;;;10.98;1.55;;;12.70;70.50;;;;;;5075136;28;20030;-77
2021/05/05 10:57:25;;;;;;;7.18;1.27;;;12.80;69.60;;;;;;5082815;28;20028;-77
2021/05/05 11:00:03;;;;;;;10.35;1.38;;;12.90;69.60;;;;;;5058272;28;20396;-78
2021/05/05 11:02:38;;;;;;;8.38;1.52;;;12.80;68.30;;;;;;5073278;28;20021;-78
2021/05/05 11:05:08;;;;;;;6.32;1.10;;;12.70;68.00;;;;;;5073640;28;20425;-79
2021/05/05 11:07:53;;;;;;;6.05;1.23;;;12.60;68.10;;;;;;5073421;28;20025;-77
2021/05/05 11:10:31;;;;;;;10.93;1.30;;;12.50;69.20;;;;;;5055480;28;20484;-78
2021/05/05 11:12:57;;;;;;;9.43;1.25;;;12.40;70.30;;;;;;5055312;28;20028;-78
2021/05/05 11:15:44;;;;;;;11.23;1.42;;;12.80;68.00;;;;;;5073540;28;20024;-77
2021/05/05 11:18:28;;;;;;;12.93;2.15;;;13.30;67.90;;;;;;5054382;28;20361;-77
2021/05/05 11:20:59;;;;;;;9.68;1.42;;;13.90;66.40;;;;;;5060244;28;20090;-77
2021/05/05 11:23:36;;;;;;;8.13;1.30;;;14.10;65.60;;;;;;5076675;28;20047;-78
2021/05/05 11:26:16;;;;;;;7.47;0.98;;;14.20;62.70;;;;;;5076203;28;20022;-77
2021/05/05 11:29:11;;;;;;;15.48;2.05;;;14.40;62.90;;;;;;5058841;28;20044;-77
2021/05/05 11:34:18;;;;;;;8.95;1.48;;;13.90;63.10;;;;;;5077013;28;20024;-78
2021/05/05 11:37:01;;;;;;;8.38;1.38;;;14.20;63.00;;;;;;5058370;28;20127;-77
2021/05/05 11:39:33;;;;;;;10.13;1.52;;;14.60;61.10;;;;;;5061088;28;20036;-78
2021/05/05 11:42:01;;;;;;;8.95;1.40;;;14.80;59.90;;;;;;5058408;28;20116;-77
2021/05/05 11:44:35;;;;;;;8.98;1.42;;;15.00;57.10;;;;;;5076228;28;20016;-78
2021/05/05 11:47:05;;;;;;;10.48;2.00;;;15.30;53.90;;;;;;5076018;28;20029;-78
2021/05/05 11:49:33;;;;;;;6.55;1.05;;;14.90;53.70;;;;;;5059032;28;20376;-79
2021/05/05 11:51:58;;;;;;;7.93;1.20;;;14.80;55.50;;;;;;5076158;28;20028;-77
2021/05/05 11:54:30;;;;;;;10.68;1.42;;;15.10;55.50;;;;;;5076055;28;20484;-77
2021/05/05 11:57:04;;;;;;;6.93;1.17;;;15.40;56.30;;;;;;5077570;28;20101;-78
2021/05/05 11:59:29;;;;;;;8.60;1.70;;;15.40;55.10;;;;;;5096282;28;20024;-78
2021/05/05 12:02:03;;;;;;;10.85;1.60;;;15.10;52.10;;;;;;5091372;28;20103;-78
2021/05/05 12:04:37;;;;;;;11.23;1.40;;;14.40;58.10;;;;;;5056673;28;20031;-78
2021/05/05 12:07:04;;;;;;;11.68;2.03;;;13.50;62.00;;;;;;5054058;28;20476;-77
2021/05/05 12:09:40;;;;;;;12.00;1.65;;;12.60;64.50;;;;;;5036404;28;20033;-77
2021/05/05 12:12:23;;;;;;;11.32;1.98;;;12.00;68.00;;;;;;5055899;28;20499;-76
2021/05/05 12:14:52;;;;;;;10.13;1.60;;;11.70;69.10;;;;;;5037712;28;20094;-77
2021/05/05 12:19:53;;;;;;;10.50;1.30;;;12.70;69.60;;;;;;5055927;28;20041;-77
2021/05/05 12:22:19;;;;;;;9.45;1.20;;;13.40;69.00;;;;;;5037619;28;20120;-78
2021/05/05 12:25:12;;;;;;;11.30;1.30;;;14.10;67.30;;;;;;5040530;28;20070;-78
2021/05/05 12:27:40;;;;;;;10.85;1.42;;;14.70;63.50;;;;;;5075489;28;20104;-78
2021/05/05 12:30:08;;;;;;;13.77;1.55;;;14.80;60.80;;;;;;5074934;28;20045;-79
2021/05/05 12:32:45;;;;;;;6.80;0.90;;;14.50;58.90;;;;;;5075508;28;20040;-80
2021/05/05 12:35:20;;;;;;;7.18;1.10;;;14.20;59.70;;;;;;5057117;28;20032;-79
2021/05/05 12:37:45;;;;;;;10.93;1.23;;;14.00;60.80;;;;;;5077891;28;20039;-79
2021/05/05 12:40:12;;;;;;;13.75;1.55;;;13.90;60.70;;;;;;5074586;28;20041;-81
2021/05/05 12:42:38;;;;;;;10.90;1.33;;;13.70;60.00;;;;;;5056983;28;20024;-78
2021/05/05 12:45:12;;;;;;;11.80;1.52;;;13.30;60.60;;;;;;5075159;28;20032;-79
2021/05/05 12:47:39;;;;;;;11.90;2.13;;;12.70;68.80;;;;;;5075265;28;20052;-78
2021/05/05 12:50:06;;;;;;;11.00;1.60;;;12.10;70.30;;;;;;5075196;28;20032;-80
2021/05/05 12:52:35;;;;;;;8.35;1.63;;;11.90;74.70;;;;;;5057125;28;20430;-80
2021/05/05 12:55:22;;;;;;;11.18;1.65;;;12.40;76.40;;;;;;5057638;28;20157;-80
2021/05/05 12:58:20;;;;;;;13.38;1.70;;;13.00;73.40;;;;;;5074818;28;20024;-79
2021/05/05 13:00:48;;;;;;;9.60;1.42;;;13.10;67.60;;;;;;5019866;28;20052;-74
2021/05/05 13:03:22;;;;;;;6.95;1.23;;;13.00;66.30;;;;;;5074897;28;20035;-75
2021/05/05 13:06:00;;;;;;;7.68;1.25;;;13.00;65.70;;;;;;5074910;28;20029;-71
2021/05/05 13:08:36;;;;;;;8.35;1.20;;;13.00;66.00;;;;;;5056669;28;20021;-73
2021/05/05 13:11:09;;;;;;;7.38;1.20;;;13.50;63.50;;;;;;5056319;28;20392;-79